Time;durP1;ratioP1;P1;durP2;ratioP2;P2;SDS_P1;SDS_P2;PMS_P1;PMS_P2;Temp;Humidity;BMP_temperature;BMP_pressure;BME280_temperature;BME280_humidity;BME280_pressure;Samples;Min_cycle;Max_cycle;Signal;HPM_P1;HPM_P2
2021/09/06 00:02:20;;;;;;;;;;;;;;;15.01;75.70;100292.53;5014478;28;621;-55
2021/09/06 00:04:46;;;;;;;;;;;;;;;15.15;74.68;100291.53;5014096;28;815;-51
2021/09/06 00:07:12;;;;;;;;;;;;;;;15.11;75.19;100297.94;5014341;28;807;-53
2021/09/06 00:09:40;;;;;;;;;;;;;;;14.99;76.01;100295.75;5013947;28;866;-53
2021/09/06 00:15:21;;;;;;;;;;;;;;;14.70;76.98;100301.75;5014047;28;1009;-53
2021/09/06 00:17:47;;;;;;;;;;;;;;;14.61;77.66;100298.66;5013854;28;863;-50
2021/09/06 00:20:14;;;;;;;;;;;;;;;14.52;76.94;100292.81;4996029;28;1962;-53
2021/09/06 00:22:41;;;;;;;;;;;;;;;14.53;77.26;100291.63;5013745;28;799;-51
2021/09/06 00:25:08;;;;;;;;;;;;;;;14.51;76.86;100299.59;5013639;28;886;-54
2021/09/06 00:27:34;;;;;;;;;;;;;;;14.50;76.84;100298.78;5013612;28;818;-51
2021/09/06 00:33:34;;;;;;;;;;;;;;;14.44;76.91;100297.66;5012638;28;673;-51
2021/09/06 00:36:01;;;;;;;;;;;;;;;14.37;77.19;100303.31;5013753;28;843;-50
2021/09/06 00:38:26;;;;;;;;;;;;;;;14.36;77.43;100298.97;5013653;28;855;-52
2021/09/06 00:40:53;;;;;;;;;;;;;;;14.31;77.12;100302.19;5013257;28;1898;-52
2021/09/06 00:55:57;;;;;;;;;;;;;;;14.35;77.15;100310.50;5013354;28;633;-49
2021/09/06 00:58:24;;;;;;;;;;;;;;;14.35;76.88;100318.84;5013142;28;830;-51
2021/09/06 01:00:50;;;;;;;;;;;;;;;14.31;77.26;100313.31;5012963;28;1969;-51
2021/09/06 01:03:17;;;;;;;;;;;;;;;14.28;76.97;100314.94;5013027;28;823;-51
2021/09/06 01:05:44;;;;;;;;;;;;;;;14.34;77.21;100312.50;5012891;28;1037;-50
2021/09/06 01:08:10;;;;;;;;;;;;;;;14.37;76.69;100314.44;5012915;28;870;-54
2021/09/06 01:10:37;;;;;;;;;;;;;;;14.42;75.99;100314.00;5012848;28;886;-50
2021/09/06 01:13:04;;;;;;;;;;;;;;;14.49;75.69;100313.91;5012715;28;856;-50
2021/09/06 01:15:30;;;;;;;;;;;;;;;14.51;75.42;100316.28;5013023;28;936;-50
2021/09/06 01:17:57;;;;;;;;;;;;;;;14.52;75.26;100315.06;4995098;28;1402;-50
2021/09/06 01:20:23;;;;;;;;;;;;;;;14.45;75.83;100315.94;5012626;28;1938;-50
2021/09/06 01:22:50;;;;;;;;;;;;;;;14.34;75.40;100308.91;5012729;28;807;-51
2021/09/06 01:25:20;;;;;;;;;;;;;;;14.25;76.15;100303.88;5012454;28;847;-52
2021/09/06 01:27:47;;;;;;;;;;;;;;;14.14;76.63;100314.31;5012498;28;879;-50
2021/09/06 01:30:14;;;;;;;;;;;;;;;14.00;77.13;100324.41;5012545;28;800;-50
2021/09/06 01:32:40;;;;;;;;;;;;;;;13.85;78.45;100314.66;5012566;28;878;-55
2021/09/06 01:35:06;;;;;;;;;;;;;;;13.72;78.87;100319.13;5012343;28;902;-52
2021/09/06 01:37:33;;;;;;;;;;;;;;;13.61;79.50;100322.00;5012351;28;832;-51
2021/09/06 01:39:59;;;;;;;;;;;;;;;13.54;80.08;100314.53;5012198;28;1890;-50
2021/09/06 01:42:26;;;;;;;;;;;;;;;13.48;80.34;100318.94;5012290;28;784;-54
2021/09/06 01:47:57;;;;;;;;;;;;;;;13.29;80.55;100314.72;5012345;28;664;-50
2021/09/06 01:50:24;;;;;;;;;;;;;;;13.25;80.54;100317.53;5012054;28;878;-54
2021/09/06 01:52:50;;;;;;;;;;;;;;;13.23;80.42;100319.13;5012171;28;791;-55
2021/09/06 02:01:28;;;;;;;;;;;;;;;13.07;80.87;100316.84;5012121;28;668;-50
2021/09/06 02:03:54;;;;;;;;;;;;;;;13.02;81.26;100317.28;4994483;28;1484;-51
2021/09/06 02:06:20;;;;;;;;;;;;;;;13.01;80.81;100312.91;5012181;28;799;-52
2021/09/06 02:08:47;;;;;;;;;;;;;;;13.01;80.61;100321.25;5012276;28;897;-54
2021/09/06 02:11:14;;;;;;;;;;;;;;;13.04;80.46;100329.56;5012106;28;873;-50
2021/09/06 02:13:41;;;;;;;;;;;;;;;13.05;80.29;100330.34;5012621;28;823;-51
2021/09/06 02:28:51;;;;;;;;;;;;;;;12.83;80.98;100335.25;4972906;28;696;-55
2021/09/06 02:31:18;;;;;;;;;;;;;;;12.90;80.70;100334.41;4972717;28;839;-54
2021/09/06 02:33:43;;;;;;;;;;;;;;;12.88;80.70;100337.56;4972657;28;906;-51
2021/09/06 02:36:10;;;;;;;;;;;;;;;12.89;80.44;100333.63;4972709;28;572;-53
2021/09/06 02:50:47;;;;;;;;;;;;;;;12.68;80.59;100333.75;4973043;28;693;-51
2021/09/06 02:53:13;;;;;;;;;;;;;;;12.62;80.65;100338.91;4987593;28;650;-49
2021/09/06 02:55:39;;;;;;;;;;;;;;;12.62;80.47;100355.53;4973497;28;872;-50
2021/09/06 02:58:06;;;;;;;;;;;;;;;12.55;80.50;100358.34;4976319;28;887;-50
2021/09/06 03:00:33;;;;;;;;;;;;;;;12.49;80.74;100348.88;4976510;28;1898;-50
2021/09/06 03:02:59;;;;;;;;;;;;;;;12.39;80.62;100364.34;4976127;28;855;-50
2021/09/06 03:05:26;;;;;;;;;;;;;;;12.31;81.39;100362.78;4976195;28;873;-50
2021/09/06 03:07:51;;;;;;;;;;;;;;;12.25;81.23;100363.22;4976129;28;867;-50
2021/09/06 03:10:18;;;;;;;;;;;;;;;12.20;81.00;100362.81;4976324;28;963;-53
2021/09/06 03:12:44;;;;;;;;;;;;;;;12.18;81.23;100367.97;4976118;28;819;-49
2021/09/06 03:15:10;;;;;;;;;;;;;;;12.14;81.55;100369.94;4976139;28;873;-51
2021/09/06 03:17:37;;;;;;;;;;;;;;;12.11;81.21;100370.75;4976089;28;846;-52
2021/09/06 03:20:07;;;;;;;;;;;;;;;12.03;80.98;100365.25;4975871;28;1890;-50
2021/09/06 03:22:33;;;;;;;;;;;;;;;11.98;81.04;100379.47;4975928;28;815;-49
2021/09/06 03:25:00;;;;;;;;;;;;;;;11.93;81.11;100381.88;4975739;28;1084;-51
2021/09/06 03:27:27;;;;;;;;;;;;;;;11.88;81.20;100383.06;4996473;28;1164;-50
2021/09/06 03:29:53;;;;;;;;;;;;;;;11.83;80.82;100386.19;5014804;28;803;-51
2021/09/06 03:32:20;;;;;;;;;;;;;;;11.79;81.06;100388.19;4997290;28;902;-51
2021/09/06 03:39:57;;;;;;;;;;;;;;;11.63;80.86;100403.22;5518367;22;1994;-59
2021/09/06 03:42:23;;;;;;;;;;;;;;;11.59;80.61;100401.63;5053031;28;1183;-59
2021/09/06 03:44:50;;;;;;;;;;;;;;;11.52;80.40;100401.63;5054404;28;869;-59
2021/09/06 03:47:16;;;;;;;;;;;;;;;11.51;79.36;100403.59;5054682;28;802;-59
2021/09/06 03:49:43;;;;;;;;;;;;;;;11.57;79.04;100399.25;5054403;28;814;-59
2021/09/06 03:52:10;;;;;;;;;;;;;;;11.64;78.90;100401.22;5054309;28;853;-59
2021/09/06 03:54:35;;;;;;;;;;;;;;;11.66;77.52;100393.31;5054566;28;830;-59
2021/09/06 03:57:02;;;;;;;;;;;;;;;11.74;76.82;100397.69;5053979;28;790;-59
2021/09/06 03:59:29;;;;;;;;;;;;;;;11.82;75.82;100406.75;5054215;28;1910;-59
2021/09/06 04:01:55;;;;;;;;;;;;;;;11.85;74.40;100401.22;5053864;28;857;-59
2021/09/06 04:07:25;;;;;;;;;;;;;;;11.95;73.59;100402.44;5053816;28;641;-59
2021/09/06 04:09:51;;;;;;;;;;;;;;;11.98;72.49;100403.63;5053632;28;888;-59
2021/09/06 04:12:18;;;;;;;;;;;;;;;12.04;72.95;100411.13;5053781;28;802;-59
2021/09/06 04:14:44;;;;;;;;;;;;;;;12.04;72.51;100410.34;5053660;28;865;-59
2021/09/06 04:17:11;;;;;;;;;;;;;;;12.09;72.51;100409.16;5053631;28;818;-59
2021/09/06 04:19:37;;;;;;;;;;;;;;;12.11;72.25;100413.09;5053561;28;1943;-59
2021/09/06 04:22:04;;;;;;;;;;;;;;;12.14;72.11;100426.19;5052284;28;1302;-59
2021/09/06 04:24:31;;;;;;;;;;;;;;;12.25;71.22;100426.16;5053406;28;806;-59
2021/09/06 04:26:59;;;;;;;;;;;;;;;12.30;71.57;100427.72;5052194;28;1317;-59
2021/09/06 04:29:26;;;;;;;;;;;;;;;12.34;70.32;100428.53;5053687;28;850;-59
2021/09/06 04:31:53;;;;;;;;;;;;;;;12.41;68.90;100428.50;5053284;28;868;-59
2021/09/06 04:34:19;;;;;;;;;;;;;;;12.53;69.05;100421.75;5053445;28;786;-59
2021/09/06 04:36:45;;;;;;;;;;;;;;;12.60;69.16;100427.25;5053264;28;822;-59
2021/09/06 04:39:13;;;;;;;;;;;;;;;12.66;68.92;100429.22;5053137;28;1889;-59
2021/09/06 04:44:42;;;;;;;;;;;;;;;12.88;69.52;100429.13;5053162;28;676;-59
2021/09/06 04:50:27;;;;;;;;;;;;;;;13.15;67.39;100445.28;5053061;28;688;-59
2021/09/06 04:52:55;;;;;;;;;;;;;;;13.24;67.63;100446.38;5052951;28;880;-59
2021/09/06 04:55:22;;;;;;;;;;;;;;;13.35;68.03;100448.34;5052926;28;802;-59
2021/09/06 05:07:14;;;;;;;;;;;;;;;13.80;66.56;100443.66;5052962;28;639;-59
2021/09/06 05:17:38;;;;;;;;;;;;;;;14.57;63.41;100450.13;5024765;28;1724;-56
2021/09/06 05:20:05;;;;;;;;;;;;;;;14.86;60.97;100453.38;5031911;28;1972;-55
2021/09/06 05:22:31;;;;;;;;;;;;;;;15.22;59.97;100459.28;5032493;28;811;-55
2021/09/06 05:24:58;;;;;;;;;;;;;;;15.35;59.58;100453.16;5032335;28;826;-55
2021/09/06 05:27:24;;;;;;;;;;;;;;;15.48;59.70;100454.16;5032385;28;862;-55
2021/09/06 05:29:50;;;;;;;;;;;;;;;15.65;57.93;100455.09;5032317;28;810;-55
2021/09/06 05:44:29;;;;;;;;;;;;;;;16.41;57.10;100452.66;5032408;28;617;-55
2021/09/06 05:46:56;;;;;;;;;;;;;;;16.55;57.44;100448.78;5014179;28;1501;-56
2021/09/06 05:49:23;;;;;;;;;;;;;;;16.51;52.73;100457.25;5031990;28;830;-54
2021/09/06 05:54:52;;;;;;;;;;;;;;;16.70;54.27;100446.50;5032047;28;613;-56
2021/09/06 05:57:18;;;;;;;;;;;;;;;17.00;53.21;100458.69;5031847;28;881;-56
2021/09/06 05:59:44;;;;;;;;;;;;;;;17.42;51.00;100453.41;5013947;28;1944;-56
2021/09/06 06:02:10;;;;;;;;;;;;;;;17.88;51.06;100457.94;5031798;28;878;-55
2021/09/06 06:04:37;;;;;;;;;;;;;;;18.11;47.34;100456.94;5031767;28;807;-56
2021/09/06 06:07:04;;;;;;;;;;;;;;;18.41;51.35;100460.56;5031640;28;898;-56
2021/09/06 06:09:30;;;;;;;;;;;;;;;18.96;52.45;100458.66;5031725;28;831;-56
2021/09/06 06:11:56;;;;;;;;;;;;;;;19.61;48.11;100455.94;5031712;28;806;-57
2021/09/06 06:14:24;;;;;;;;;;;;;;;20.13;44.87;100452.63;5031399;28;987;-56
2021/09/06 06:16:52;;;;;;;;;;;;;;;20.40;44.45;100448.53;5010512;28;1413;-56
2021/09/06 06:19:55;;;;;;;;;;;;;;;20.50;41.68;100450.16;5010493;28;1913;-56
2021/09/06 06:22:22;;;;;;;;;;;;;;;20.58;41.14;100445.88;5011585;28;1279;-56
2021/09/06 06:24:49;;;;;;;;;;;;;;;20.76;44.20;100445.25;5011838;28;791;-56
2021/09/06 06:30:26;;;;;;;;;;;;;;;21.20;44.73;100452.84;5011823;28;660;-57
2021/09/06 06:32:53;;;;;;;;;;;;;;;21.81;47.46;100445.63;5015842;28;851;-57
2021/09/06 06:35:20;;;;;;;;;;;;;;;22.43;49.39;100446.69;5015866;28;854;-57
2021/09/06 06:37:46;;;;;;;;;;;;;;;22.93;49.68;100441.59;5015756;28;842;-57
2021/09/06 06:52:23;;;;;;;;;;;;;;;22.45;39.03;100457.44;5016254;28;617;-56
2021/09/06 06:54:49;;;;;;;;;;;;;;;22.23;43.43;100455.56;5015494;28;882;-57
2021/09/06 06:57:18;;;;;;;;;;;;;;;22.41;41.82;100455.59;5015736;28;787;-56
2021/09/06 06:59:45;;;;;;;;;;;;;;;22.80;43.92;100458.69;5015341;28;1894;-57
2021/09/06 07:02:12;;;;;;;;;;;;;;;22.74;42.22;100462.59;5015831;28;791;-57
2021/09/06 07:04:39;;;;;;;;;;;;;;;22.59;42.81;100463.25;5015291;28;830;-57
2021/09/06 07:10:09;;;;;;;;;;;;;;;22.66;44.30;100479.06;5015237;28;621;-56
2021/09/06 07:12:36;;;;;;;;;;;;;;;23.12;42.78;100472.59;5015214;28;869;-57
2021/09/06 07:15:04;;;;;;;;;;;;;;;23.33;44.36;100480.06;5015081;28;1237;-57
2021/09/06 07:17:30;;;;;;;;;;;;;;;23.90;46.60;100479.38;5028731;28;1445;-57
2021/09/06 07:19:57;;;;;;;;;;;;;;;24.24;39.82;100469.59;5034676;28;1914;-57
2021/09/06 07:22:24;;;;;;;;;;;;;;;23.83;39.90;100476.91;5034669;28;872;-56
2021/09/06 07:24:53;;;;;;;;;;;;;;;23.81;44.39;100474.56;5034924;28;842;-57
2021/09/06 07:27:20;;;;;;;;;;;;;;;24.09;44.47;100468.78;5034694;28;873;-57
2021/09/06 07:29:47;;;;;;;;;;;;;;;24.23;44.78;100467.25;5034561;28;857;-57
2021/09/06 07:32:14;;;;;;;;;;;;;;;24.60;44.70;100475.47;5034538;28;849;-57
2021/09/06 07:34:41;;;;;;;;;;;;;;;24.37;38.98;100477.06;5016724;28;893;-57
2021/09/06 07:37:08;;;;;;;;;;;;;;;24.16;39.63;100479.69;5016673;28;1169;-57
2021/09/06 07:39:36;;;;;;;;;;;;;;;24.25;43.37;100484.50;5034329;28;1890;-57
2021/09/06 07:42:03;;;;;;;;;;;;;;;24.43;41.40;100475.91;5033905;28;877;-57
2021/09/06 07:44:29;;;;;;;;;;;;;;;24.43;44.55;100494.88;5034161;28;779;-57
2021/09/06 07:46:55;;;;;;;;;;;;;;;24.85;42.57;100493.94;5034248;28;791;-57
2021/09/06 07:49:22;;;;;;;;;;;;;;;24.62;40.34;100493.50;5034203;28;826;-56
2021/09/06 07:51:54;;;;;;;;;;;;;;;24.65;44.85;100494.59;5034098;28;881;-57
2021/09/06 07:54:24;;;;;;;;;;;;;;;24.80;40.17;100500.28;5034915;28;771;-57
2021/09/06 07:56:52;;;;;;;;;;;;;;;24.56;41.43;100489.78;5034094;28;822;-57
2021/09/06 07:59:20;;;;;;;;;;;;;;;24.65;42.10;100500.25;5033964;28;1951;-56
2021/09/06 08:01:47;;;;;;;;;;;;;;;24.77;41.61;100498.41;5033982;28;795;-57
2021/09/06 08:04:14;;;;;;;;;;;;;;;24.71;40.64;100494.69;5033924;28;909;-57
2021/09/06 08:09:46;;;;;;;;;;;;;;;24.61;44.21;100485.50;5033909;28;708;-57
2021/09/06 08:12:18;;;;;;;;;;;;;;;24.65;41.97;100495.38;5034079;28;792;-55
2021/09/06 08:14:45;;;;;;;;;;;;;;;24.76;40.98;100485.53;5033638;28;948;-57
2021/09/06 08:17:11;;;;;;;;;;;;;;;24.28;39.64;100488.41;5033562;28;1366;-57
2021/09/06 08:19:38;;;;;;;;;;;;;;;24.16;41.91;100487.41;5033621;28;1907;-56
2021/09/06 08:22:04;;;;;;;;;;;;;;;24.17;40.88;100486.13;5033564;28;815;-56
2021/09/06 08:24:31;;;;;;;;;;;;;;;24.09;41.06;100485.72;5033669;28;827;-57
2021/09/06 08:26:58;;;;;;;;;;;;;;;24.11;42.46;100483.19;5033484;28;839;-56
2021/09/06 08:29:25;;;;;;;;;;;;;;;24.18;42.98;100485.66;5033441;28;799;-56
2021/09/06 08:31:51;;;;;;;;;;;;;;;24.49;44.23;100478.06;5033612;28;834;-57
2021/09/06 08:34:18;;;;;;;;;;;;;;;24.68;39.24;100487.19;5033408;28;803;-56
2021/09/06 08:36:44;;;;;;;;;;;;;;;24.84;49.18;100483.91;5033704;28;778;-57
2021/09/06 08:39:11;;;;;;;;;;;;;;;25.41;41.41;100485.69;5033250;28;1960;-57
2021/09/06 08:41:38;;;;;;;;;;;;;;;24.97;38.63;100473.09;5033423;28;799;-56
2021/09/06 08:44:05;;;;;;;;;;;;;;;24.50;40.79;100471.94;5033261;28;795;-56
2021/09/06 08:46:32;;;;;;;;;;;;;;;24.75;43.08;100470.63;5015483;28;1334;-56
2021/09/06 08:49:01;;;;;;;;;;;;;;;24.71;41.44;100489.81;5033264;28;835;-56
2021/09/06 08:51:28;;;;;;;;;;;;;;;24.20;40.18;100485.16;5033115;28;811;-56
2021/09/06 09:06:06;;;;;;;;;;;;;;;24.86;40.65;100473.66;5033173;28;1062;-56
2021/09/06 09:08:35;;;;;;;;;;;;;;;24.89;40.49;100486.03;5033066;28;870;-57
2021/09/06 09:11:03;;;;;;;;;;;;;;;25.05;41.75;100494.06;5032989;28;791;-56
2021/09/06 09:13:31;;;;;;;;;;;;;;;24.14;44.19;100479.41;5032547;28;842;-56
2021/09/06 09:15:58;;;;;;;;;;;;;;;23.92;44.00;100467.59;5032561;28;1428;-57
2021/09/06 09:18:27;;;;;;;;;;;;;;;24.23;40.29;100476.50;5032568;28;803;-57
2021/09/06 09:21:01;;;;;;;;;;;;;;;23.98;46.63;100477.78;5032348;28;1914;-57
2021/09/06 09:23:37;;;;;;;;;;;;;;;23.82;40.82;100470.47;5032503;28;884;-56
2021/09/06 09:26:04;;;;;;;;;;;;;;;23.70;45.38;100476.31;5032574;28;885;-57
2021/09/06 09:28:32;;;;;;;;;;;;;;;24.15;41.62;100472.47;5032689;28;858;-56
2021/09/06 09:31:09;;;;;;;;;;;;;;;24.39;46.59;100466.81;5032500;28;796;-57
2021/09/06 09:33:54;;;;;;;;;;;;;;;24.10;42.01;100475.19;5014622;28;876;-57
2021/09/06 09:36:33;;;;;;;;;;;;;;;23.95;41.47;100475.13;5032282;28;822;-57
2021/09/06 09:39:16;;;;;;;;;;;;;;;24.11;43.23;100473.91;5032248;28;830;-57
2021/09/06 09:41:50;;;;;;;;;;;;;;;24.47;42.62;100470.03;5031921;28;1140;-57
2021/09/06 09:44:22;;;;;;;;;;;;;;;24.36;40.04;100467.78;5032163;28;810;-57
2021/09/06 09:46:55;;;;;;;;;;;;;;;24.68;42.01;100478.72;5031972;28;964;-57
2021/09/06 09:49:23;;;;;;;;;;;;;;;24.92;40.00;100464.50;5032014;28;869;-57
2021/09/06 09:51:48;;;;;;;;;;;;;;;25.42;38.30;100467.44;5032273;28;873;-57
2021/09/06 09:54:18;;;;;;;;;;;;;;;24.94;37.59;100471.22;5031922;28;818;-57
2021/09/06 09:56:46;;;;;;;;;;;;;;;24.78;36.98;100475.31;5031907;28;874;-57
2021/09/06 09:59:13;;;;;;;;;;;;;;;24.89;40.73;100469.06;5031768;28;1919;-57
2021/09/06 10:01:49;;;;;;;;;;;;;;;24.65;40.32;100472.75;5031787;28;874;-57
2021/09/06 10:04:19;;;;;;;;;;;;;;;24.63;39.08;100463.97;5014082;28;1216;-57
2021/09/06 10:06:48;;;;;;;;;;;;;;;25.07;38.38;100459.63;5032026;28;815;-57
2021/09/06 10:09:14;;;;;;;;;;;;;;;25.21;38.40;100464.53;5031716;28;890;-57
2021/09/06 10:24:19;;;;;;;;;;;;;;;25.72;35.40;100459.66;5024632;28;1264;-57
2021/09/06 10:26:47;;;;;;;;;;;;;;;25.20;37.76;100448.03;5031492;28;827;-57
2021/09/06 10:29:17;;;;;;;;;;;;;;;25.21;36.11;100458.09;5031446;28;857;-57
2021/09/06 10:31:44;;;;;;;;;;;;;;;25.30;36.33;100463.63;5031487;28;964;-57
2021/09/06 10:34:20;;;;;;;;;;;;;;;25.59;38.07;100450.72;5031361;28;783;-57
2021/09/06 10:36:55;;;;;;;;;;;;;;;25.91;37.17;100462.28;5031996;28;796;-57
2021/09/06 10:39:22;;;;;;;;;;;;;;;26.05;37.93;100450.09;5031300;28;1973;-57
2021/09/06 10:41:50;;;;;;;;;;;;;;;26.04;35.97;100454.22;5031372;28;803;-57
2021/09/06 10:44:20;;;;;;;;;;;;;;;26.31;34.99;100449.38;5031247;28;811;-56
2021/09/06 10:46:56;;;;;;;;;;;;;;;25.55;34.48;100441.66;5031311;28;870;-57
2021/09/06 10:49:24;;;;;;;;;;;;;;;25.64;37.87;100441.53;5031458;28;850;-57
2021/09/06 10:51:52;;;;;;;;;;;;;;;25.86;35.63;100444.69;5031596;28;908;-57
2021/09/06 10:54:18;;;;;;;;;;;;;;;25.86;34.57;100441.84;5031347;28;794;-57
2021/09/06 10:56:44;;;;;;;;;;;;;;;25.87;34.62;100431.31;5031216;28;818;-57
2021/09/06 10:59:11;;;;;;;;;;;;;;;25.94;35.87;100430.13;5031264;28;1886;-57
2021/09/06 11:01:37;;;;;;;;;;;;;;;26.23;34.93;100434.88;5031709;28;857;-57
2021/09/06 11:04:04;;;;;;;;;;;;;;;26.46;38.42;100433.09;5031546;28;854;-57
2021/09/06 11:06:30;;;;;;;;;;;;;;;26.53;35.16;100432.66;5031626;28;791;-57
2021/09/06 11:08:59;;;;;;;;;;;;;;;26.65;33.14;100425.06;5031792;28;826;-57
2021/09/06 11:11:30;;;;;;;;;;;;;;;26.25;33.94;100429.50;5013396;28;1514;-57
2021/09/06 11:13:57;;;;;;;;;;;;;;;26.20;35.75;100425.34;5031320;28;835;-57
2021/09/06 11:16:33;;;;;;;;;;;;;;;26.68;37.04;100422.00;5013570;28;1492;-56
2021/09/06 11:19:09;;;;;;;;;;;;;;;26.49;34.27;100420.75;5035118;28;814;-57
2021/09/06 11:21:35;;;;;;;;;;;;;;;25.86;34.50;100424.06;5034810;28;815;-57
2021/09/06 11:24:01;;;;;;;;;;;;;;;25.61;34.83;100425.53;5034543;28;1216;-57
2021/09/06 11:26:31;;;;;;;;;;;;;;;25.91;34.40;100419.81;5034941;28;795;-56
2021/09/06 11:32:15;;;;;;;;;;;;;;;24.63;35.37;100418.75;5034615;28;691;-57
2021/09/06 11:34:41;;;;;;;;;;;;;;;24.02;36.89;100432.41;5034592;28;878;-57
2021/09/06 11:37:10;;;;;;;;;;;;;;;23.78;36.86;100430.34;5034497;28;854;-55
2021/09/06 11:51:48;;;;;;;;;;;;;;;25.50;34.65;100409.19;5034452;28;885;-57
2021/09/06 11:54:19;;;;;;;;;;;;;;;25.22;35.72;100422.88;5034181;28;841;-57
2021/09/06 11:56:45;;;;;;;;;;;;;;;24.95;35.45;100418.28;5034066;28;873;-56
2021/09/06 11:59:11;;;;;;;;;;;;;;;24.64;35.58;100420.34;5034054;28;1957;-57
2021/09/06 12:01:38;;;;;;;;;;;;;;;24.51;35.72;100402.84;5033983;28;803;-57
2021/09/06 12:04:11;;;;;;;;;;;;;;;24.51;36.67;100408.50;5033959;28;870;-56
2021/09/06 12:06:38;;;;;;;;;;;;;;;24.44;36.53;100408.88;5033931;28;803;-57
2021/09/06 12:09:07;;;;;;;;;;;;;;;24.54;37.43;100406.78;5033753;28;893;-57
2021/09/06 12:11:37;;;;;;;;;;;;;;;24.81;36.89;100403.66;5033801;28;823;-56
2021/09/06 12:14:06;;;;;;;;;;;;;;;24.84;36.50;100414.00;5016186;28;1276;-57
2021/09/06 12:16:33;;;;;;;;;;;;;;;24.68;36.82;100410.88;5034188;28;982;-57
2021/09/06 12:19:01;;;;;;;;;;;;;;;24.35;36.89;100404.09;5033608;28;862;-57
2021/09/06 12:21:28;;;;;;;;;;;;;;;24.27;39.50;100402.88;5033599;28;1879;-57
2021/09/06 12:24:00;;;;;;;;;;;;;;;24.50;36.96;100401.31;5033353;28;1230;-57
2021/09/06 12:26:37;;;;;;;;;;;;;;;24.75;39.46;100404.81;5033574;28;839;-57
2021/09/06 12:29:04;;;;;;;;;;;;;;;24.69;41.87;100401.13;5032259;28;775;-57
2021/09/06 12:31:39;;;;;;;;;;;;;;;24.55;39.77;100408.31;5033448;28;842;-56
2021/09/06 12:34:05;;;;;;;;;;;;;;;24.26;43.18;100412.63;5033482;28;806;-57
2021/09/06 12:36:32;;;;;;;;;;;;;;;24.15;43.07;100401.09;5033364;28;838;-57
2021/09/06 12:38:59;;;;;;;;;;;;;;;23.99;42.94;100410.78;5033235;28;964;-57
2021/09/06 12:41:29;;;;;;;;;;;;;;;24.04;43.24;100412.94;5033171;28;1918;-57
2021/09/06 12:43:56;;;;;;;;;;;;;;;23.90;42.51;100408.00;5033253;28;792;-57
2021/09/06 12:46:23;;;;;;;;;;;;;;;24.02;45.06;100404.19;5033124;28;1107;-57
2021/09/06 12:48:49;;;;;;;;;;;;;;;24.69;42.22;100409.59;5033222;28;849;-57
2021/09/06 12:51:16;;;;;;;;;;;;;;;24.93;41.93;100415.19;5033015;28;855;-58
2021/09/06 12:53:42;;;;;;;;;;;;;;;24.95;42.67;100404.16;5033065;28;854;-57
2021/09/06 12:56:10;;;;;;;;;;;;;;;24.64;42.55;100414.69;5033013;28;874;-57
2021/09/06 12:58:36;;;;;;;;;;;;;;;23.98;44.06;100417.69;5032921;28;843;-57
2021/09/06 13:01:03;;;;;;;;;;;;;;;23.41;44.08;100407.19;5032921;28;1951;-58
2021/09/06 13:03:29;;;;;;;;;;;;;;;23.08;45.38;100422.03;5015016;28;1481;-57
2021/09/06 13:05:56;;;;;;;;;;;;;;;22.94;45.56;100412.19;5032868;28;843;-57
2021/09/06 13:08:23;;;;;;;;;;;;;;;23.01;45.30;100417.50;5032821;28;850;-57
2021/09/06 13:10:51;;;;;;;;;;;;;;;23.07;45.59;100412.00;5032731;28;853;-57
2021/09/06 13:13:18;;;;;;;;;;;;;;;23.20;44.48;100406.16;5032707;28;859;-57
2021/09/06 13:15:47;;;;;;;;;;;;;;;23.36;46.05;100424.75;5032871;28;871;-57
2021/09/06 13:18:14;;;;;;;;;;;;;;;23.49;44.80;100418.88;5032611;28;787;-57
2021/09/06 13:20:41;;;;;;;;;;;;;;;23.63;44.67;100424.59;5032470;28;1947;-57
2021/09/06 13:23:09;;;;;;;;;;;;;;;23.57;45.05;100425.75;5032484;28;1334;-57
2021/09/06 13:37:46;;;;;;;;;;;;;;;25.51;40.69;100432.59;5032452;28;617;-58
2021/09/06 13:40:13;;;;;;;;;;;;;;;25.92;39.35;100438.34;5031757;28;1910;-58
2021/09/06 13:42:40;;;;;;;;;;;;;;;26.32;38.83;100433.97;5264998;22;3526;-58
2021/09/06 13:45:07;;;;;;;;;;;;;;;26.60;38.28;100432.22;5052385;28;900;-58
2021/09/06 13:47:34;;;;;;;;;;;;;;;26.27;38.28;100441.13;5052239;28;889;-57
2021/09/06 13:50:01;;;;;;;;;;;;;;;25.69;39.07;100438.00;5052446;28;849;-58
2021/09/06 13:52:29;;;;;;;;;;;;;;;25.45;40.72;100435.31;5052132;28;829;-58
2021/09/06 13:54:58;;;;;;;;;;;;;;;25.08;39.54;100443.44;5052189;28;794;-57
2021/09/06 13:57:25;;;;;;;;;;;;;;;24.54;40.84;100438.63;5051823;28;845;-57
2021/09/06 13:59:52;;;;;;;;;;;;;;;24.19;41.65;100432.75;5051818;28;1910;-58
2021/09/06 14:02:19;;;;;;;;;;;;;;;24.04;41.81;100435.53;5052082;28;881;-57
2021/09/06 14:04:46;;;;;;;;;;;;;;;24.09;42.37;100454.66;5051736;28;794;-58
2021/09/06 14:07:12;;;;;;;;;;;;;;;24.19;41.48;100444.84;5051700;28;893;-58
2021/09/06 14:09:39;;;;;;;;;;;;;;;23.91;41.97;100451.94;5051717;28;798;-58
2021/09/06 14:12:11;;;;;;;;;;;;;;;24.03;42.15;100453.75;5051768;28;872;-57
2021/09/06 14:14:39;;;;;;;;;;;;;;;24.61;40.81;100452.38;5051617;28;835;-58
2021/09/06 14:17:05;;;;;;;;;;;;;;;25.12;39.91;100449.69;5051916;28;865;-58
2021/09/06 14:19:33;;;;;;;;;;;;;;;25.14;39.57;100456.41;5051422;28;1882;-58
2021/09/06 14:22:00;;;;;;;;;;;;;;;24.77;39.94;100445.50;5051654;28;822;-57
2021/09/06 14:24:27;;;;;;;;;;;;;;;24.54;39.94;100452.00;5051647;28;794;-57
2021/09/06 14:26:54;;;;;;;;;;;;;;;24.57;40.66;100459.50;5051446;28;833;-57
2021/09/06 14:29:20;;;;;;;;;;;;;;;24.81;40.11;100454.53;5051733;28;818;-57
2021/09/06 14:31:48;;;;;;;;;;;;;;;24.51;40.41;100467.84;5051492;28;794;-57
2021/09/06 14:34:15;;;;;;;;;;;;;;;24.20;41.15;100474.66;5051373;28;872;-57
2021/09/06 14:36:41;;;;;;;;;;;;;;;23.49;41.83;100470.44;5051541;28;870;-57
2021/09/06 14:39:07;;;;;;;;;;;;;;;23.12;43.52;100462.09;5050053;28;1310;-57
2021/09/06 14:41:33;;;;;;;;;;;;;;;23.00;43.62;100474.31;5051325;28;1882;-57
2021/09/06 14:44:00;;;;;;;;;;;;;;;23.03;43.38;100476.22;5051154;28;1269;-58
2021/09/06 14:46:27;;;;;;;;;;;;;;;22.98;44.07;100488.91;5051326;28;861;-57
2021/09/06 14:48:54;;;;;;;;;;;;;;;22.86;44.51;100477.78;5051188;28;853;-58
2021/09/06 14:51:21;;;;;;;;;;;;;;;22.72;44.66;100482.03;5051324;28;830;-58
2021/09/06 14:53:47;;;;;;;;;;;;;;;22.57;44.81;100471.38;5055254;28;893;-57
2021/09/06 14:56:15;;;;;;;;;;;;;;;22.45;45.27;100480.78;5055556;28;862;-57
2021/09/06 14:58:41;;;;;;;;;;;;;;;22.28;45.77;100479.53;5055208;28;818;-57
2021/09/06 15:01:07;;;;;;;;;;;;;;;22.07;46.54;100478.34;5053844;28;1972;-57
2021/09/06 15:03:34;;;;;;;;;;;;;;;21.93;46.31;100488.16;5055302;28;857;-57
2021/09/06 15:06:00;;;;;;;;;;;;;;;21.72;46.21;100485.00;5055007;28;802;-57
2021/09/06 15:08:27;;;;;;;;;;;;;;;21.47;46.81;100491.59;5055072;28;846;-57
2021/09/06 15:10:54;;;;;;;;;;;;;;;21.41;47.31;100501.84;5054821;28;853;-57
2021/09/06 15:13:21;;;;;;;;;;;;;;;21.36;47.12;100503.22;5054965;28;833;-57
2021/09/06 15:15:47;;;;;;;;;;;;;;;21.14;47.32;100499.66;5054910;28;834;-58
2021/09/06 15:18:15;;;;;;;;;;;;;;;21.07;47.63;100495.09;5054873;28;948;-57
2021/09/06 15:20:40;;;;;;;;;;;;;;;21.01;48.07;100500.50;5054953;28;1890;-57
2021/09/06 15:23:07;;;;;;;;;;;;;;;20.99;47.76;100503.00;5055030;28;834;-58
2021/09/06 15:25:34;;;;;;;;;;;;;;;20.93;48.07;100501.22;5054872;28;826;-57
2021/09/06 15:28:01;;;;;;;;;;;;;;;20.88;48.51;100505.41;5054929;28;869;-57
2021/09/06 15:30:43;;;;;;;;;;;;;;;20.89;48.71;100506.19;5055051;28;799;-57
2021/09/06 15:33:11;;;;;;;;;;;;;;;20.82;48.97;100506.44;5054482;28;861;-57
2021/09/06 15:35:38;;;;;;;;;;;;;;;20.74;49.24;100497.47;5054566;28;773;-57
2021/09/06 15:38:05;;;;;;;;;;;;;;;20.49;48.79;100501.94;5054441;28;849;-57
2021/09/06 15:40:31;;;;;;;;;;;;;;;20.31;49.36;100504.56;5054224;28;1898;-58
2021/09/06 15:42:58;;;;;;;;;;;;;;;20.18;49.53;100507.41;5052787;28;1307;-58
2021/09/06 15:45:26;;;;;;;;;;;;;;;20.05;49.35;100501.81;5054330;28;801;-57
2021/09/06 15:47:52;;;;;;;;;;;;;;;19.96;50.00;100508.09;5054217;28;908;-58
2021/09/06 15:50:19;;;;;;;;;;;;;;;19.91;50.35;100507.91;5054538;28;837;-58
2021/09/06 15:52:45;;;;;;;;;;;;;;;19.88;49.81;100508.78;5054187;28;853;-57